createdAt,value
2023-01-22T00:14:46.564Z,3.10
2023-01-22T00:26:04.188Z,3.00
2023-01-22T00:29:26.352Z,3.00
2023-01-22T00:37:58.358Z,2.80
2023-01-22T00:39:12.434Z,2.70
2023-01-22T00:41:16.511Z,2.80
2023-01-22T00:45:48.735Z,2.80
2023-01-22T00:57:38.887Z,2.80
2023-01-22T01:03:15.011Z,2.60
2023-01-22T01:29:16.250Z,2.50
2023-01-22T01:30:45.476Z,2.70
2023-01-22T01:32:14.555Z,2.70
2023-01-22T01:33:48.688Z,2.70
2023-01-22T01:42:46.665Z,2.60
2023-01-22T01:46:17.480Z,2.60
2023-01-22T01:51:39.115Z,2.50
2023-01-22T01:53:16.686Z,2.40
2023-01-22T01:54:23.755Z,2.50
2023-01-22T02:57:42.829Z,2.40
2023-01-22T03:12:54.361Z,2.60
2023-01-22T03:20:45.118Z,2.60
2023-01-22T03:22:14.920Z,2.80
2023-01-22T03:23:38.511Z,2.70
2023-01-22T03:25:18.935Z,2.80
2023-01-22T03:32:08.527Z,2.70
2023-01-22T03:33:16.702Z,2.70
2023-01-22T03:34:24.884Z,2.60
2023-01-22T03:35:31.560Z,2.60
2023-01-22T03:36:55.977Z,2.60
2023-01-22T03:37:58.919Z,2.60
2023-01-22T03:39:05.643Z,2.50
2023-01-22T03:40:09.950Z,2.50
2023-01-22T03:41:18.585Z,2.50
2023-01-22T03:42:25.844Z,2.50
2023-01-22T03:43:30.466Z,2.50
2023-01-22T03:44:35.014Z,2.60
2023-01-22T03:45:38.902Z,2.60
2023-01-22T03:46:43.707Z,2.80
2023-01-22T03:47:46.669Z,2.70
2023-01-22T03:49:04.607Z,2.70
2023-01-22T03:50:08.828Z,2.70
2023-01-22T03:51:16.050Z,1.50
2023-01-22T03:52:19.683Z,2.70
2023-01-22T03:53:23.609Z,2.60
2023-01-22T03:54:29.230Z,2.60
2023-01-22T03:55:34.513Z,2.70
2023-01-22T03:56:41.920Z,2.70
2023-01-22T03:57:54.534Z,2.30
2023-01-22T03:58:58.938Z,2.70
2023-01-22T04:00:07.795Z,2.70
2023-01-22T04:01:20.706Z,2.80
2023-01-22T04:02:23.590Z,2.80
2023-01-22T04:03:41.869Z,2.90
2023-01-22T04:04:47.952Z,1.80
2023-01-22T04:05:52.924Z,2.80
2023-01-22T04:06:57.534Z,2.80
2023-01-22T04:08:03.007Z,2.70
2023-01-22T04:09:08.840Z,2.70
2023-01-22T04:10:51.678Z,2.70
2023-01-22T04:11:55.147Z,2.60
2023-01-22T04:13:02.298Z,2.60
2023-01-22T04:14:05.650Z,2.50
2023-01-22T04:15:13.693Z,3.70
2023-01-22T04:16:16.797Z,2.70
2023-01-22T04:17:39.318Z,2.70
2023-01-22T04:19:11.030Z,2.70
2023-01-22T04:20:44.698Z,2.70
2023-01-22T04:21:56.727Z,2.70
2023-01-22T04:22:59.517Z,2.60
2023-01-22T04:24:04.845Z,2.70
2023-01-22T04:25:09.225Z,2.70
2023-01-22T04:26:14.028Z,2.60
2023-01-22T04:27:19.239Z,2.60
2023-01-22T04:28:27.285Z,2.60
2023-01-22T04:29:31.580Z,2.60
2023-01-22T04:30:36.621Z,1.60
2023-01-22T04:32:00.095Z,2.70
2023-01-22T04:33:27.395Z,2.70
2023-01-22T04:34:41.770Z,3.20
2023-01-22T04:35:59.107Z,0.80
2023-01-22T04:37:03.123Z,2.70
2023-01-22T04:38:13.643Z,2.70
2023-01-22T04:39:20.199Z,1.60
2023-01-22T04:40:23.677Z,2.70
2023-01-22T04:41:31.666Z,2.70
2023-01-22T04:42:34.967Z,2.70
2023-01-22T04:43:40.300Z,2.70
2023-01-22T04:44:43.579Z,1.80
2023-01-22T04:45:53.017Z,2.70
2023-01-22T04:47:03.386Z,2.80
2023-01-22T04:48:09.369Z,1.90
2023-01-22T04:49:15.272Z,2.60
2023-01-22T04:50:22.904Z,3.80
2023-01-22T04:51:28.608Z,2.60
2023-01-22T04:52:32.064Z,2.70
2023-01-22T04:53:36.573Z,2.70
2023-01-22T04:54:42.365Z,2.70
2023-01-22T04:55:57.173Z,2.60
2023-01-22T04:57:02.242Z,2.60
2023-01-22T04:58:06.816Z,2.60
2023-01-22T04:59:10.100Z,2.60
2023-01-22T05:00:16.417Z,2.50
2023-01-22T05:01:19.532Z,2.30
2023-01-22T05:02:24.746Z,2.40
2023-01-22T05:03:29.504Z,1.30
2023-01-22T05:04:34.211Z,2.30
2023-01-22T05:05:38.414Z,2.40
2023-01-22T05:06:44.743Z,2.30
2023-01-22T05:07:48.289Z,2.30
2023-01-22T05:08:53.611Z,2.20
2023-01-22T05:09:57.600Z,2.20
2023-01-22T05:11:03.317Z,2.20
2023-01-22T05:12:15.013Z,2.20
2023-01-22T05:13:20.863Z,2.20
2023-01-22T05:14:24.534Z,2.20
2023-01-22T05:15:30.510Z,3.50
2023-01-22T05:16:39.256Z,2.20
2023-01-22T05:17:43.719Z,3.20
2023-01-22T05:18:47.478Z,2.20
2023-01-22T05:19:52.809Z,2.10
2023-01-22T05:20:57.675Z,2.10
2023-01-22T05:22:07.295Z,2.10
2023-01-22T05:23:13.537Z,2.10
2023-01-22T05:24:22.479Z,2.10
2023-01-22T05:25:25.975Z,2.10
2023-01-22T05:26:30.885Z,2.10
2023-01-22T05:27:56.698Z,2.10
2023-01-22T05:29:26.280Z,2.10
2023-01-22T05:30:51.449Z,2.10
2023-01-22T05:32:22.234Z,2.10
2023-01-22T05:33:30.676Z,2.00
2023-01-22T05:34:34.613Z,2.10
2023-01-22T05:35:40.558Z,2.10
2023-01-22T05:36:47.477Z,2.10
2023-01-22T05:37:57.998Z,2.10
2023-01-22T05:39:01.487Z,2.20
2023-01-22T05:40:06.522Z,2.30
2023-01-22T05:41:11.588Z,2.30
2023-01-22T05:42:18.783Z,2.30
2023-01-22T05:43:24.742Z,2.30
2023-01-22T05:44:34.670Z,1.20
2023-01-22T05:45:38.387Z,2.20
2023-01-22T05:46:56.887Z,2.20
2023-01-22T05:48:18.398Z,2.20
2023-01-22T05:49:48.848Z,2.20
2023-01-22T05:50:53.984Z,2.20
2023-01-22T05:51:58.311Z,2.10
2023-01-22T05:53:06.172Z,2.10
2023-01-22T05:54:11.176Z,2.10
2023-01-22T05:55:18.098Z,2.10
2023-01-22T05:56:23.494Z,2.00
2023-01-22T05:57:30.062Z,2.00
2023-01-22T05:58:35.323Z,2.10
2023-01-22T05:59:39.148Z,2.00
2023-01-22T06:00:45.992Z,2.10
2023-01-22T06:01:51.447Z,2.10
2023-01-22T06:02:59.384Z,2.10
2023-01-22T06:04:04.191Z,2.10
2023-01-22T06:05:10.017Z,2.20
2023-01-22T06:06:16.237Z,2.10
2023-01-22T06:07:26.559Z,2.10
2023-01-22T06:08:34.077Z,2.10
2023-01-22T06:09:38.249Z,2.10
2023-01-22T06:10:42.281Z,2.10
2023-01-22T06:11:46.443Z,2.00
2023-01-22T06:12:51.058Z,2.00
2023-01-22T06:13:55.625Z,2.00
2023-01-22T06:14:59.425Z,2.30
2023-01-22T06:16:05.892Z,2.10
2023-01-22T06:17:35.296Z,2.10
2023-01-22T06:18:39.014Z,2.10
2023-01-22T06:19:43.381Z,2.20
2023-01-22T06:20:46.468Z,2.20
2023-01-22T06:21:50.561Z,2.20
2023-01-22T06:23:00.192Z,2.20
2023-01-22T06:24:10.196Z,2.20
2023-01-22T06:25:13.138Z,2.20
2023-01-22T06:26:46.188Z,2.90
2023-01-22T06:27:51.783Z,2.20
2023-01-22T06:28:55.937Z,2.20
2023-01-22T06:29:59.018Z,2.10
2023-01-22T06:31:08.097Z,0.60
2023-01-22T06:32:13.047Z,2.10
2023-01-22T06:33:17.866Z,1.80
2023-01-22T06:34:20.805Z,2.10
2023-01-22T06:35:25.624Z,2.10
2023-01-22T06:36:29.335Z,2.10
2023-01-22T06:37:33.877Z,2.10
2023-01-22T06:38:38.547Z,2.10
2023-01-22T06:39:46.084Z,2.10
2023-01-22T06:41:03.152Z,2.00
2023-01-22T06:42:08.891Z,2.00
2023-01-22T06:43:11.546Z,2.00
2023-01-22T06:44:18.052Z,2.10
2023-01-22T06:45:24.355Z,2.10
2023-01-22T06:46:33.049Z,2.10
2023-01-22T06:47:43.980Z,2.10
2023-01-22T06:48:50.045Z,2.10
2023-01-22T06:49:53.130Z,2.10
2023-01-22T06:51:00.131Z,2.10
2023-01-22T06:52:08.996Z,0.80
2023-01-22T06:53:13.712Z,2.10
2023-01-22T06:54:16.906Z,2.00
2023-01-22T06:55:23.046Z,2.10
2023-01-22T06:56:27.613Z,2.10
2023-01-22T06:57:36.937Z,2.10
2023-01-22T06:58:42.421Z,2.20
2023-01-22T06:59:50.453Z,2.30
2023-01-22T07:01:01.236Z,2.20
2023-01-22T07:02:04.679Z,2.20
2023-01-22T07:03:10.624Z,2.30
2023-01-22T07:04:13.843Z,2.30
2023-01-22T07:05:19.872Z,2.30
2023-01-22T07:06:23.971Z,2.40
2023-01-22T07:07:27.058Z,2.40
2023-01-22T07:08:34.607Z,2.40
2023-01-22T07:09:38.097Z,2.30
2023-01-22T07:10:43.629Z,2.30
2023-01-22T07:11:47.550Z,2.40
2023-01-22T07:12:54.881Z,1.10
2023-01-22T07:13:59.601Z,1.00
2023-01-22T07:15:07.995Z,2.30
2023-01-22T07:16:13.695Z,2.20
2023-01-22T07:17:16.896Z,2.20
2023-01-22T07:18:24.441Z,2.20
2023-01-22T07:19:28.144Z,2.20
2023-01-22T07:20:32.528Z,2.30
2023-01-22T07:21:40.056Z,2.30
2023-01-22T07:22:43.100Z,2.30
2023-01-22T07:23:47.509Z,2.30
2023-01-22T07:24:54.393Z,2.30
2023-01-22T07:26:00.431Z,2.30
2023-01-22T07:27:03.836Z,2.40
2023-01-22T07:28:12.206Z,2.40
2023-01-22T07:29:15.597Z,2.20
2023-01-22T07:30:20.683Z,3.40
2023-01-22T07:31:23.409Z,2.40
2023-01-22T07:32:27.935Z,2.40
2023-01-22T07:33:31.208Z,2.30
2023-01-22T07:34:37.792Z,2.30
2023-01-22T07:35:42.270Z,2.20
2023-01-22T07:36:48.262Z,2.20
2023-01-22T07:37:55.694Z,2.20
2023-01-22T07:39:01.235Z,2.20
2023-01-22T07:40:06.676Z,2.20
2023-01-22T07:41:25.159Z,2.20
2023-01-22T07:42:29.382Z,2.10
2023-01-22T07:43:34.238Z,1.30
2023-01-22T07:44:40.762Z,2.20
2023-01-22T07:45:44.913Z,2.10
2023-01-22T07:46:48.693Z,2.20
2023-01-22T07:47:54.659Z,2.30
2023-01-22T07:48:57.655Z,2.30
2023-01-22T07:50:02.275Z,2.30
2023-01-22T07:51:08.565Z,1.70
2023-01-22T07:52:12.930Z,2.30
2023-01-22T07:53:16.620Z,2.40
2023-01-22T07:54:22.125Z,2.40
2023-01-22T07:55:25.644Z,2.50
2023-01-22T07:56:31.386Z,2.50
2023-01-22T07:57:40.165Z,2.40
2023-01-22T07:58:46.857Z,2.50
2023-01-22T07:59:50.087Z,2.50
2023-01-22T08:00:54.354Z,2.50
2023-01-22T08:02:09.661Z,2.40
2023-01-22T08:04:00.899Z,2.30
2023-01-22T08:05:14.636Z,1.90
2023-01-22T08:06:50.780Z,2.30
2023-01-22T08:07:55.188Z,2.30
2023-01-22T08:09:00.110Z,2.40
2023-01-22T08:10:03.373Z,2.30
2023-01-22T08:11:17.674Z,2.40
2023-01-22T08:12:41.636Z,2.40
2023-01-22T08:13:47.704Z,2.40
2023-01-22T08:14:52.985Z,2.30
2023-01-22T08:16:03.192Z,2.30
2023-01-22T08:17:12.651Z,2.30
2023-01-22T08:18:31.061Z,2.40
2023-01-22T08:19:37.493Z,2.40
2023-01-22T08:20:42.784Z,2.40
2023-01-22T08:21:54.732Z,2.40
2023-01-22T08:22:59.703Z,2.40
2023-01-22T08:24:02.796Z,2.40
2023-01-22T08:25:07.610Z,1.40
2023-01-22T08:26:10.311Z,2.40
2023-01-22T08:27:14.498Z,2.40
2023-01-22T08:28:18.774Z,2.40
2023-01-22T08:29:24.769Z,2.40
2023-01-22T08:30:27.399Z,2.40
2023-01-22T08:31:33.522Z,0.90
2023-01-22T08:32:36.950Z,2.40
2023-01-22T08:33:40.695Z,2.30
2023-01-22T08:34:43.409Z,2.30
2023-01-22T08:35:50.923Z,2.30
2023-01-22T08:36:57.458Z,2.20
2023-01-22T08:38:01.728Z,2.30
2023-01-22T08:39:06.089Z,2.20
2023-01-22T08:40:12.435Z,3.00
2023-01-22T08:41:17.563Z,2.30
2023-01-22T08:42:21.131Z,3.70
2023-01-22T08:43:27.584Z,2.30
2023-01-22T08:44:32.014Z,2.30
2023-01-22T08:45:37.854Z,2.00
2023-01-22T08:46:44.858Z,2.50
2023-01-22T08:47:52.889Z,2.30
2023-01-22T08:48:59.837Z,1.70
2023-01-22T08:50:09.328Z,2.30
2023-01-22T08:51:13.646Z,2.30
2023-01-22T08:52:18.321Z,2.30
2023-01-22T08:53:21.517Z,2.30
2023-01-22T08:54:27.552Z,2.40
2023-01-22T08:55:32.709Z,2.40
2023-01-22T08:56:37.566Z,3.00
2023-01-22T08:57:43.474Z,2.50
2023-01-22T08:58:54.713Z,2.50
2023-01-22T09:00:01.253Z,2.50
2023-01-22T09:01:07.282Z,2.50
2023-01-22T09:02:18.864Z,2.50
2023-01-22T09:03:24.316Z,1.10
2023-01-22T09:04:28.698Z,2.60
2023-01-22T09:05:33.308Z,2.60
2023-01-22T09:06:40.202Z,3.10
2023-01-22T09:07:44.872Z,2.60
2023-01-22T09:08:49.469Z,2.60
2023-01-22T09:09:52.612Z,2.60
2023-01-22T09:10:57.146Z,2.60
2023-01-22T09:12:00.348Z,2.60
2023-01-22T09:13:04.473Z,2.70
2023-01-22T09:14:10.699Z,2.70
2023-01-22T09:15:13.769Z,3.90
2023-01-22T09:16:17.961Z,4.60
2023-01-22T09:17:21.328Z,2.70
2023-01-22T09:18:25.567Z,2.60
2023-01-22T09:19:29.953Z,2.60
2023-01-22T09:20:34.138Z,2.60
2023-01-22T09:21:41.804Z,2.60
2023-01-22T09:22:47.872Z,2.60
2023-01-22T09:23:53.564Z,2.70
2023-01-22T09:24:56.953Z,2.70
2023-01-22T09:26:02.744Z,2.70
2023-01-22T09:27:06.887Z,2.60
2023-01-22T09:28:13.206Z,2.70
2023-01-22T09:29:18.183Z,2.60
2023-01-22T09:30:26.507Z,2.70
2023-01-22T09:31:31.003Z,2.70
2023-01-22T09:32:38.358Z,1.30
2023-01-22T09:33:43.062Z,2.70
2023-01-22T09:34:49.783Z,2.70
2023-01-22T09:35:54.013Z,2.70
2023-01-22T09:36:58.145Z,2.70
2023-01-22T09:38:02.387Z,2.60
2023-01-22T09:39:09.794Z,1.40
2023-01-22T09:40:26.711Z,2.50
2023-01-22T09:41:37.244Z,2.50
2023-01-22T09:42:45.822Z,3.90
2023-01-22T09:43:56.799Z,2.50
2023-01-22T09:45:12.634Z,2.50
2023-01-22T09:46:23.516Z,2.50
2023-01-22T09:47:38.054Z,2.50
2023-01-22T09:48:49.776Z,2.50
2023-01-22T09:50:00.989Z,2.50
2023-01-22T09:51:12.756Z,2.50
2023-01-22T09:52:18.077Z,2.60
2023-01-22T09:53:22.796Z,2.60
2023-01-22T09:54:30.471Z,2.50
2023-01-22T09:55:45.458Z,2.60
2023-01-22T09:56:56.625Z,2.70
2023-01-22T09:58:06.752Z,2.70
2023-01-22T09:59:19.162Z,2.70
2023-01-22T10:00:44.503Z,2.80
2023-01-22T10:01:54.621Z,2.80
2023-01-22T10:03:07.014Z,2.80
2023-01-22T10:04:34.294Z,2.80
2023-01-22T10:05:47.282Z,2.70
2023-01-22T10:06:56.115Z,2.70
2023-01-22T10:08:09.122Z,2.70
2023-01-22T10:09:19.886Z,2.70
2023-01-22T10:10:25.915Z,2.70
2023-01-22T10:11:34.859Z,2.50
2023-01-22T10:12:40.528Z,2.60
2023-01-22T10:13:45.571Z,2.60
2023-01-22T10:14:52.898Z,1.10
2023-01-22T10:15:59.393Z,2.60
2023-01-22T10:17:04.201Z,2.60
2023-01-22T10:18:28.589Z,2.60
2023-01-22T10:19:45.218Z,2.70
2023-01-22T10:20:51.489Z,1.30
2023-01-22T10:22:05.373Z,2.40
2023-01-22T10:23:20.022Z,3.00
2023-01-22T10:24:25.225Z,3.10
2023-01-22T10:25:29.578Z,3.00
2023-01-22T10:26:40.092Z,2.90
2023-01-22T10:27:46.876Z,3.00
2023-01-22T10:28:55.043Z,3.00
2023-01-22T10:30:05.518Z,3.00
2023-01-22T10:31:24.206Z,2.80
2023-01-22T10:32:30.091Z,2.80
2023-01-22T10:33:44.740Z,1.80
2023-01-22T10:35:02.222Z,2.70
2023-01-22T10:36:07.694Z,2.70
2023-01-22T10:37:16.860Z,2.80
2023-01-22T10:38:27.398Z,2.80
2023-01-22T10:39:41.104Z,2.80
2023-01-22T10:40:46.122Z,2.70
2023-01-22T10:41:51.489Z,2.70
2023-01-22T10:43:12.955Z,4.20
2023-01-22T10:44:22.995Z,2.80
2023-01-22T10:45:26.595Z,2.90
2023-01-22T10:46:37.763Z,2.90
2023-01-22T10:47:43.678Z,2.90
2023-01-22T10:49:01.259Z,3.20
2023-01-22T10:50:07.997Z,4.20
2023-01-22T10:51:18.071Z,2.90
2023-01-22T10:52:35.814Z,2.80
2023-01-22T10:53:47.237Z,2.90
2023-01-22T10:54:59.841Z,2.90
2023-01-22T10:56:06.985Z,2.90
2023-01-22T10:57:21.924Z,1.90
2023-01-22T10:58:31.198Z,3.10
2023-01-22T10:59:38.501Z,3.20
2023-01-22T11:00:51.873Z,3.20
2023-01-22T11:02:03.185Z,3.20
2023-01-22T11:03:22.485Z,3.20
2023-01-22T11:04:29.315Z,2.20
2023-01-22T11:05:37.206Z,3.10
2023-01-22T11:06:47.741Z,3.00
2023-01-22T11:07:59.320Z,3.00
2023-01-22T11:09:17.923Z,2.90
2023-01-22T11:10:33.767Z,2.90
2023-01-22T11:11:43.422Z,2.90
2023-01-22T11:12:53.962Z,2.80
2023-01-22T11:14:05.895Z,1.10
2023-01-22T11:15:23.721Z,2.70
2023-01-22T11:16:32.903Z,3.10
2023-01-22T11:17:42.550Z,2.90
2023-01-22T11:18:55.588Z,2.70
2023-01-22T11:20:07.461Z,2.80
2023-01-22T11:21:17.987Z,2.90
2023-01-22T11:22:33.656Z,2.90
2023-01-22T11:23:45.317Z,3.00
2023-01-22T11:24:49.980Z,3.00
2023-01-22T11:26:03.705Z,3.10
2023-01-22T11:27:24.758Z,3.10
2023-01-22T11:28:42.549Z,3.20
2023-01-22T11:30:06.556Z,3.40
2023-01-22T11:31:30.897Z,3.20
2023-01-22T11:32:50.139Z,3.30
2023-01-22T11:34:23.710Z,3.40
2023-01-22T11:35:38.682Z,3.20
2023-01-22T11:36:50.627Z,3.20
2023-01-22T11:38:18.817Z,3.30
2023-01-22T11:39:41.027Z,3.30
2023-01-22T11:41:05.662Z,3.30
2023-01-22T11:42:29.893Z,3.20
2023-01-22T11:43:56.110Z,3.10
2023-01-22T11:45:16.727Z,3.10
2023-01-22T11:46:35.401Z,3.00
2023-01-22T11:48:07.455Z,3.00
2023-01-22T11:49:25.247Z,3.00
2023-01-22T11:50:38.288Z,2.90
2023-01-22T11:52:00.671Z,3.00
2023-01-22T11:53:32.180Z,2.60
2023-01-22T11:54:58.166Z,2.80
2023-01-22T11:56:19.161Z,2.90
2023-01-22T11:57:32.286Z,1.80
2023-01-22T11:58:46.450Z,2.70
2023-01-22T12:00:35.115Z,2.70
2023-01-22T12:02:00.125Z,2.60
2023-01-22T12:03:47.283Z,2.70
2023-01-22T12:05:15.246Z,2.70
2023-01-22T12:06:42.322Z,2.70
2023-01-22T12:08:21.719Z,2.80
2023-01-22T12:09:36.214Z,2.80
2023-01-22T12:11:15.013Z,2.80
2023-01-22T12:12:33.579Z,2.80
2023-01-22T12:14:00.705Z,2.70
2023-01-22T12:15:23.707Z,2.70
2023-01-22T12:16:38.328Z,2.80
2023-01-22T12:17:59.298Z,2.80
2023-01-22T12:19:27.566Z,2.90
2023-01-22T12:21:07.726Z,2.90
2023-01-22T12:22:27.765Z,2.90
2023-01-22T12:23:39.023Z,2.90
2023-01-22T12:24:50.427Z,2.90
2023-01-22T12:26:00.223Z,2.90
2023-01-22T12:27:08.588Z,4.20
2023-01-22T12:28:19.107Z,2.90
2023-01-22T12:29:29.282Z,2.90
2023-01-22T12:30:52.122Z,2.90
2023-01-22T12:32:09.414Z,2.90
2023-01-22T12:33:17.941Z,3.00
2023-01-22T12:34:29.116Z,1.40
2023-01-22T12:35:33.882Z,2.70
2023-01-22T12:36:43.840Z,2.60
2023-01-22T12:37:54.621Z,2.60
2023-01-22T12:39:02.794Z,2.50
2023-01-22T12:40:38.524Z,2.50
2023-01-22T12:41:56.798Z,2.50
2023-01-22T12:43:03.017Z,2.60
2023-01-22T12:44:24.881Z,2.20
2023-01-22T12:45:42.355Z,4.30
2023-01-22T12:46:58.291Z,2.60
2023-01-22T12:48:22.611Z,2.60
2023-01-22T12:49:30.077Z,2.60
2023-01-22T12:50:37.728Z,2.60
2023-01-22T12:51:44.684Z,2.60
2023-01-22T12:53:01.054Z,2.50
2023-01-22T12:54:21.645Z,2.50
2023-01-22T12:55:35.185Z,2.50
2023-01-22T12:56:40.833Z,2.50
2023-01-22T12:57:45.306Z,2.50
2023-01-22T12:59:07.613Z,2.50
2023-01-22T13:00:36.080Z,2.50
2023-01-22T13:01:42.551Z,2.50
2023-01-22T13:02:45.753Z,2.60
2023-01-22T13:04:01.887Z,2.60
2023-01-22T13:05:22.069Z,2.60
2023-01-22T13:06:34.772Z,2.60
2023-01-22T13:07:41.390Z,2.70
2023-01-22T13:08:51.314Z,2.70
2023-01-22T13:10:23.783Z,2.50
2023-01-22T13:11:36.054Z,3.50
2023-01-22T13:12:47.112Z,2.50
2023-01-22T13:14:13.741Z,2.50
2023-01-22T13:15:23.938Z,2.50
2023-01-22T13:16:34.804Z,3.90
2023-01-22T13:17:42.735Z,2.60
2023-01-22T13:18:50.428Z,3.80
2023-01-22T13:19:56.793Z,2.70
2023-01-22T13:21:09.391Z,2.70
2023-01-22T13:22:18.657Z,2.70
2023-01-22T13:23:22.919Z,2.60
2023-01-22T13:24:29.758Z,2.70
2023-01-22T13:25:36.129Z,2.70
2023-01-22T13:26:42.282Z,3.60
2023-01-22T13:27:48.443Z,2.70
2023-01-22T13:28:57.998Z,3.10
2023-01-22T13:30:09.715Z,2.70
2023-01-22T13:31:21.919Z,2.70
2023-01-22T13:32:40.684Z,2.70
2023-01-22T13:33:57.175Z,2.80
2023-01-22T13:35:04.473Z,3.10
2023-01-22T13:36:16.218Z,3.40
2023-01-22T13:37:24.022Z,3.60
2023-01-22T13:38:38.948Z,4.00
2023-01-22T13:39:44.944Z,4.20
2023-01-22T13:40:51.765Z,4.10
2023-01-22T13:42:01.725Z,4.00
2023-01-22T13:43:06.777Z,4.00
2023-01-22T13:44:21.416Z,3.30
2023-01-22T13:45:28.103Z,4.20
2023-01-22T13:46:32.836Z,4.20
2023-01-22T13:47:39.162Z,4.30
2023-01-22T13:48:47.732Z,4.50
2023-01-22T13:49:51.100Z,4.60
2023-01-22T13:51:04.617Z,5.60
2023-01-22T13:52:16.903Z,4.80
2023-01-22T13:53:32.225Z,5.00
2023-01-22T13:54:44.609Z,5.00
2023-01-22T13:55:48.313Z,4.90
2023-01-22T13:56:53.768Z,4.80
2023-01-22T13:57:58.994Z,4.80
2023-01-22T13:59:18.761Z,4.60
2023-01-22T14:00:28.244Z,4.40
2023-01-22T14:01:36.461Z,4.10
2023-01-22T14:02:45.826Z,3.70
2023-01-22T14:04:00.182Z,3.50
2023-01-22T14:05:05.242Z,3.30
2023-01-22T14:06:13.064Z,3.50
2023-01-22T14:07:27.247Z,3.60
2023-01-22T14:08:32.028Z,3.90
2023-01-22T14:09:38.281Z,4.40
2023-01-22T14:10:44.123Z,4.50
2023-01-22T14:11:49.268Z,4.50
2023-01-22T14:13:05.560Z,4.60
2023-01-22T14:14:21.231Z,4.70
2023-01-22T14:15:26.034Z,4.70
2023-01-22T14:16:40.950Z,4.80
2023-01-22T14:17:50.633Z,4.90
2023-01-22T14:18:57.405Z,4.80
2023-01-22T14:20:03.715Z,4.70
2023-01-22T14:21:09.395Z,4.90
2023-01-22T14:22:13.193Z,5.00
2023-01-22T14:23:18.328Z,5.20
2023-01-22T14:24:23.844Z,5.30
2023-01-22T14:25:30.371Z,5.50
2023-01-22T14:26:35.470Z,5.60
2023-01-22T14:27:47.965Z,5.70
2023-01-22T14:28:53.888Z,5.50
2023-01-22T14:30:00.227Z,5.40
2023-01-22T14:31:05.827Z,5.30
2023-01-22T14:32:10.636Z,3.90
2023-01-22T14:33:23.888Z,5.40
2023-01-22T14:34:28.656Z,3.40
2023-01-22T14:35:34.028Z,6.70
2023-01-22T14:36:40.851Z,5.10
2023-01-22T14:37:46.793Z,5.20
2023-01-22T14:38:58.287Z,5.10
2023-01-22T14:40:02.270Z,4.90
2023-01-22T14:41:10.810Z,4.90
2023-01-22T14:42:15.731Z,5.00
2023-01-22T14:43:25.637Z,5.00
2023-01-22T14:44:33.267Z,5.10
2023-01-22T14:45:43.326Z,4.90
2023-01-22T14:46:49.303Z,4.80
2023-01-22T14:47:58.834Z,5.40
2023-01-22T14:49:02.434Z,4.60
2023-01-22T14:50:10.731Z,4.60
2023-01-22T14:51:16.085Z,4.50
2023-01-22T14:52:23.156Z,4.40
2023-01-22T14:53:28.253Z,4.30
2023-01-22T14:54:32.546Z,4.30
2023-01-22T14:55:37.235Z,4.20
2023-01-22T14:56:41.766Z,4.00
2023-01-22T14:57:45.545Z,4.00
2023-01-22T14:58:50.360Z,4.00
2023-01-22T14:59:54.008Z,3.90
2023-01-22T15:00:58.294Z,3.90
2023-01-22T15:02:02.786Z,3.80
2023-01-22T15:03:06.107Z,3.60
2023-01-22T15:04:10.323Z,3.40
2023-01-22T15:05:13.519Z,3.20
2023-01-22T15:06:17.811Z,3.00
2023-01-22T15:07:23.425Z,3.00
2023-01-22T15:08:29.911Z,2.90
2023-01-22T15:09:34.800Z,4.60
2023-01-22T15:10:38.874Z,2.70
2023-01-22T15:11:45.783Z,2.60
2023-01-22T15:12:55.157Z,2.70
2023-01-22T15:13:58.072Z,2.50
2023-01-22T15:15:02.222Z,2.50
2023-01-22T15:16:09.274Z,2.50
2023-01-22T15:17:12.385Z,4.00
2023-01-22T15:18:17.625Z,3.20
2023-01-22T15:19:24.076Z,2.60
2023-01-22T15:20:27.271Z,2.60
2023-01-22T15:21:32.428Z,2.60
2023-01-22T15:22:35.871Z,2.60
2023-01-22T15:23:39.955Z,2.60
2023-01-22T15:24:45.792Z,1.80
2023-01-22T15:25:58.209Z,2.60
2023-01-22T15:27:03.128Z,2.50
2023-01-22T15:28:25.286Z,2.40
2023-01-22T15:29:29.988Z,2.40
2023-01-22T15:30:34.200Z,2.20
2023-01-22T15:31:38.969Z,2.40
2023-01-22T15:32:51.279Z,2.40
2023-01-22T15:33:55.049Z,2.30
2023-01-22T15:35:00.143Z,2.40
2023-01-22T15:36:05.713Z,2.40
2023-01-22T15:37:14.162Z,2.40
2023-01-22T15:38:18.741Z,2.40
2023-01-22T15:39:23.675Z,2.40
2023-01-22T15:40:27.958Z,2.40
2023-01-22T15:41:34.823Z,2.40
2023-01-22T15:42:47.346Z,2.50
2023-01-22T15:43:51.716Z,1.80
2023-01-22T15:44:56.042Z,2.50
2023-01-22T15:45:59.144Z,2.60
2023-01-22T15:47:11.327Z,2.60
2023-01-22T15:48:16.818Z,2.60
2023-01-22T15:49:20.506Z,2.60
2023-01-22T15:50:26.278Z,2.70
2023-01-22T15:51:31.443Z,2.70
2023-01-22T15:52:35.989Z,2.70
2023-01-22T15:53:38.759Z,2.70
2023-01-22T15:54:43.463Z,2.80
2023-01-22T15:55:51.057Z,2.80
2023-01-22T15:56:55.436Z,2.80
2023-01-22T15:58:04.939Z,2.80
2023-01-22T15:59:09.307Z,2.80
2023-01-22T16:00:14.024Z,2.80
2023-01-22T16:01:19.926Z,2.80
2023-01-22T16:02:23.838Z,2.70
2023-01-22T16:03:30.088Z,2.60
2023-01-22T16:04:34.500Z,2.60
2023-01-22T16:05:37.769Z,2.60
2023-01-22T16:06:42.748Z,2.60
2023-01-22T16:07:52.978Z,2.50
2023-01-22T16:08:58.311Z,2.50
2023-01-22T16:10:03.427Z,2.50
2023-01-22T16:11:09.839Z,2.50
2023-01-22T16:12:14.187Z,2.50
2023-01-22T16:13:17.443Z,2.50
2023-01-22T16:14:21.330Z,2.50
2023-01-22T16:15:25.904Z,2.60
2023-01-22T16:16:31.784Z,2.70
2023-01-22T16:17:36.087Z,4.30
2023-01-22T16:18:40.180Z,2.70
2023-01-22T16:19:44.539Z,2.70
2023-01-22T16:20:49.099Z,2.60
2023-01-22T16:21:54.696Z,2.00
2023-01-22T16:23:01.548Z,4.00
2023-01-22T16:24:07.170Z,2.60
2023-01-22T16:25:10.308Z,2.60
2023-01-22T16:26:20.926Z,2.50
2023-01-22T16:27:25.173Z,4.00
2023-01-22T16:28:28.776Z,2.50
2023-01-22T16:29:34.003Z,2.00
2023-01-22T16:30:40.102Z,2.50
2023-01-22T16:31:44.825Z,2.80
2023-01-22T16:32:48.031Z,2.60
2023-01-22T16:33:55.620Z,2.50
2023-01-22T16:35:00.046Z,2.60
2023-01-22T16:36:08.017Z,2.50
2023-01-22T16:37:12.955Z,2.50
2023-01-22T16:38:17.631Z,2.50
2023-01-22T16:39:24.133Z,2.60
2023-01-22T16:40:27.155Z,1.40
2023-01-22T16:41:35.079Z,2.60
2023-01-22T16:42:40.736Z,2.50
2023-01-22T16:43:45.438Z,2.00
2023-01-22T16:44:49.074Z,2.60
2023-01-22T16:45:52.191Z,2.60
2023-01-22T16:47:00.165Z,2.60
2023-01-22T16:48:04.931Z,1.00
2023-01-22T16:49:15.137Z,2.60
2023-01-22T16:50:21.112Z,3.00
2023-01-22T16:51:27.152Z,2.90
2023-01-22T16:52:32.550Z,3.20
2023-01-22T16:53:35.660Z,2.90
2023-01-22T16:54:42.820Z,2.90
2023-01-22T16:55:47.015Z,2.90
2023-01-22T16:56:53.146Z,2.90
2023-01-22T16:58:01.460Z,2.80
2023-01-22T16:59:05.879Z,2.80
2023-01-22T17:00:13.438Z,2.70
2023-01-22T17:01:17.016Z,2.70
2023-01-22T17:02:21.070Z,4.20
2023-01-22T17:03:24.692Z,2.60
2023-01-22T17:04:29.148Z,2.50
2023-01-22T17:05:32.175Z,2.50
2023-01-22T17:06:41.800Z,1.90
2023-01-22T17:07:46.424Z,2.30
2023-01-22T17:08:49.667Z,2.40
2023-01-22T17:09:54.393Z,2.80
2023-01-22T17:10:58.850Z,2.40
2023-01-22T17:12:09.956Z,2.50
2023-01-22T17:13:14.889Z,2.50
2023-01-22T17:14:22.833Z,1.10
2023-01-22T17:15:27.560Z,2.50
2023-01-22T17:16:32.003Z,2.50
2023-01-22T17:17:35.349Z,4.20
2023-01-22T17:18:40.780Z,2.50
2023-01-22T17:19:45.650Z,2.40
2023-01-22T17:21:01.559Z,2.40
2023-01-22T17:22:06.804Z,2.40
2023-01-22T17:23:09.804Z,2.30
2023-01-22T17:24:16.088Z,2.40
2023-01-22T17:25:20.244Z,3.50
2023-01-22T17:26:23.159Z,2.40
2023-01-22T17:27:29.195Z,2.40
2023-01-22T17:28:32.715Z,2.40
2023-01-22T17:29:37.899Z,2.50
2023-01-22T17:30:42.886Z,2.40
2023-01-22T17:31:49.091Z,2.40
2023-01-22T17:32:53.370Z,2.40
2023-01-22T17:33:59.537Z,2.40
2023-01-22T17:35:06.044Z,2.30
2023-01-22T17:36:17.319Z,2.40
2023-01-22T17:37:21.976Z,3.60
2023-01-22T17:38:29.158Z,2.40
2023-01-22T17:39:33.545Z,2.40
2023-01-22T17:40:38.788Z,2.40
2023-01-22T17:41:43.809Z,2.60
2023-01-22T17:42:48.554Z,2.40
2023-01-22T17:43:56.093Z,2.40
2023-01-22T17:44:59.939Z,2.30
2023-01-22T17:46:06.625Z,2.20
2023-01-22T17:47:11.907Z,2.30
2023-01-22T17:48:15.169Z,0.60
2023-01-22T17:49:22.056Z,2.30
2023-01-22T17:50:29.016Z,2.30
2023-01-22T17:51:33.925Z,2.20
2023-01-22T17:52:38.195Z,2.20
2023-01-22T17:53:45.900Z,2.20
2023-01-22T17:54:51.551Z,2.20
2023-01-22T17:55:54.754Z,2.20
2023-01-22T17:56:58.897Z,2.30
2023-01-22T17:58:04.087Z,2.20
2023-01-22T17:59:09.536Z,2.20
2023-01-22T18:00:15.090Z,2.10
2023-01-22T18:01:26.364Z,2.10
2023-01-22T18:02:30.418Z,2.10
2023-01-22T18:03:35.883Z,2.20
2023-01-22T18:04:41.012Z,2.10
2023-01-22T18:05:44.720Z,2.10
2023-01-22T18:06:50.006Z,2.20
2023-01-22T18:07:56.115Z,2.20
2023-01-22T18:09:01.413Z,3.30
2023-01-22T18:10:05.714Z,2.30
2023-01-22T18:11:11.506Z,2.30
2023-01-22T18:12:18.028Z,2.80
2023-01-22T18:13:22.514Z,2.30
2023-01-22T18:14:31.154Z,2.10
2023-01-22T18:15:34.898Z,2.40
2023-01-22T18:16:42.118Z,2.40
2023-01-22T18:17:45.075Z,2.40
2023-01-22T18:18:51.778Z,2.00